Aviation Digital Data Service (ADDS)

Output produced by TAFs form (0123 UTC 23 July 2017)
found at http://www.aviationweather.gov/adds/tafs/
 
METAR text: RJNG 222328Z 09004KT 9999 FEW015 BKN030 BKN045 27/23 Q1009 RMK 1CU015 5CU030 6SC045 A2980
Conditions at: RJNG (GIFU (JASDF) , JP) observed 2328 UTC 22 July 2017
Temperature: 27.0°C (81°F)
Dewpoint: 23.0°C (73°F) [RH = 79%]
Pressure (altimeter): 29.79 inches Hg (1009.0 mb)
Winds: from the E (90 degrees) at 5 MPH (4 knots; 2.1 m/s)
Visibility: 6 or more miles (10+ km)
Ceiling: 3000 feet AGL
Clouds: few clouds at 1500 feet AGL
broken clouds at 3000 feet AGL
broken clouds at 4500 feet AGL
Weather: no significant weather observed at this time